Time;durP1;ratioP1;P1;durP2;ratioP2;P2;SDS_P1;SDS_P2;PMS_P1;PMS_P2;Temp;Humidity;BMP_temperature;BMP_pressure;BME280_temperature;BME280_humidity;BME280_pressure;Samples;Min_cycle;Max_cycle;Signal;HPM_P1;HPM_P2
2022/12/26 00:01:34;;;;;;;38.35;20.60;;;8.40;99.90;;;;;;5033974;28;20041;-35
2022/12/26 00:04:01;;;;;;;30.55;17.80;;;8.40;99.90;;;;;;5016495;28;20041;-35
2022/12/26 00:06:29;;;;;;;31.90;18.00;;;8.40;99.90;;;;;;5033824;28;20151;-35
2022/12/26 00:08:55;;;;;;;32.88;18.10;;;8.40;99.90;;;;;;5033952;28;20045;-36
2022/12/26 00:11:22;;;;;;;33.58;18.65;;;8.40;99.90;;;;;;5021595;28;20064;-35
2022/12/26 00:13:56;;;;;;;33.97;18.10;;;8.40;99.90;;;;;;5022982;28;20124;-35
2022/12/26 00:16:22;;;;;;;31.05;17.67;;;8.40;99.90;;;;;;5022784;28;20462;-35
2022/12/26 00:18:49;;;;;;;31.70;18.17;;;8.40;99.90;;;;;;5022523;28;20041;-35
2022/12/26 00:21:16;;;;;;;31.77;17.65;;;8.40;99.90;;;;;;5040344;28;20690;-34
2022/12/26 00:23:44;;;;;;;30.60;18.33;;;8.40;99.90;;;;;;5022833;28;20049;-36
2022/12/26 00:26:13;;;;;;;28.85;16.80;;;8.40;99.90;;;;;;5022564;28;20049;-35
2022/12/26 00:28:39;;;;;;;24.02;15.05;;;8.40;99.90;;;;;;5040081;28;20037;-35
2022/12/26 00:31:26;;;;;;;28.40;16.33;;;8.40;99.90;;;;;;5040159;28;20037;-34
2022/12/26 00:33:52;;;;;;;24.98;15.93;;;8.40;99.90;;;;;;5006058;28;20137;-35
2022/12/26 00:36:32;;;;;;;28.05;15.77;;;8.40;99.90;;;;;;5022466;28;20127;-35
2022/12/26 00:39:01;;;;;;;23.95;15.02;;;8.40;99.90;;;;;;5022547;28;20045;-35
2022/12/26 00:41:28;;;;;;;23.85;16.02;;;8.40;99.90;;;;;;5038803;28;20084;-34
2022/12/26 00:43:54;;;;;;;30.70;15.73;;;8.40;99.90;;;;;;5022394;28;20041;-35
2022/12/26 00:46:22;;;;;;;23.75;15.52;;;8.40;99.90;;;;;;5022743;28;20048;-35
2022/12/26 00:48:48;;;;;;;25.95;15.57;;;8.40;99.90;;;;;;5040250;28;20045;-35
2022/12/26 00:51:14;;;;;;;28.55;15.95;;;8.40;99.90;;;;;;5023102;28;20409;-34
2022/12/26 00:53:41;;;;;;;28.35;16.02;;;8.40;99.90;;;;;;5022691;28;20102;-35
2022/12/26 00:56:07;;;;;;;29.50;16.30;;;8.40;99.90;;;;;;5022625;28;20037;-35
2022/12/26 00:58:34;;;;;;;28.75;16.17;;;8.40;99.90;;;;;;5022480;28;20092;-34
2022/12/26 01:01:15;;;;;;;39.55;17.70;;;8.40;99.90;;;;;;5040607;28;20481;-34
2022/12/26 01:03:42;;;;;;;42.70;19.13;;;8.40;99.90;;;;;;5022537;28;20033;-34
2022/12/26 01:06:08;;;;;;;34.70;17.75;;;8.50;99.90;;;;;;5038911;28;20042;-34
2022/12/26 01:08:34;;;;;;;35.58;16.30;;;8.40;99.90;;;;;;5040176;28;20053;-35
2022/12/26 01:11:05;;;;;;;29.98;16.50;;;8.50;99.90;;;;;;5022670;28;20163;-34
2022/12/26 01:13:31;;;;;;;39.67;17.80;;;8.50;99.90;;;;;;5022539;28;20462;-35
2022/12/26 01:15:57;;;;;;;41.25;17.50;;;8.50;99.90;;;;;;5022602;28;20047;-35
2022/12/26 01:18:24;;;;;;;39.83;19.92;;;8.50;99.90;;;;;;5039977;28;20038;-34
2022/12/26 01:20:50;;;;;;;34.63;17.85;;;8.50;99.90;;;;;;5021785;28;20052;-36
2022/12/26 01:23:17;;;;;;;35.13;17.70;;;8.50;99.90;;;;;;5035026;28;20493;-35
2022/12/26 01:25:43;;;;;;;29.00;15.95;;;8.50;99.90;;;;;;5019129;28;20081;-35
2022/12/26 01:28:15;;;;;;;29.67;15.93;;;8.50;99.90;;;;;;5019025;28;20098;-35
2022/12/26 01:30:46;;;;;;;28.17;15.55;;;8.50;99.90;;;;;;5018839;28;20037;-35
2022/12/26 01:33:12;;;;;;;30.15;16.15;;;8.50;99.90;;;;;;5019286;28;20429;-35
2022/12/26 01:35:38;;;;;;;27.45;16.08;;;8.50;99.90;;;;;;5019037;28;20451;-35
2022/12/26 01:38:05;;;;;;;31.52;15.88;;;8.50;99.90;;;;;;5036563;28;20120;-35
2022/12/26 01:40:31;;;;;;;31.35;16.10;;;8.60;99.90;;;;;;5018679;28;20459;-35
2022/12/26 01:43:31;;;;;;;35.58;17.02;;;8.60;99.90;;;;;;5034878;28;20057;-35
2022/12/26 01:46:00;;;;;;;34.00;16.02;;;8.60;99.90;;;;;;5013645;28;20055;-35
2022/12/26 01:48:33;;;;;;;31.42;15.45;;;8.60;99.90;;;;;;5036292;28;20046;-35
2022/12/26 01:51:04;;;;;;;36.35;15.75;;;8.60;99.90;;;;;;5035108;28;20041;-35
2022/12/26 01:53:39;;;;;;;35.13;15.43;;;8.60;99.90;;;;;;5016224;28;20038;-35
2022/12/26 01:56:20;;;;;;;;;;;8.60;99.90;;;;;;5000959;28;20078;-35
2022/12/26 01:58:54;;;;;;;30.17;15.20;;;8.60;99.90;;;;;;4998874;28;19964;-35
2022/12/26 02:01:28;;;;;;;32.17;16.00;;;8.60;99.90;;;;;;4999508;28;20589;-35
2022/12/26 02:06:42;;;;;;;34.72;18.67;;;8.60;99.90;;;;;;5016463;28;20534;-35
2022/12/26 02:09:10;;;;;;;34.22;18.65;;;8.60;99.90;;;;;;4998539;28;20114;-35
2022/12/26 02:11:57;;;;;;;34.00;19.63;;;8.60;99.90;;;;;;4998602;28;20069;-35
2022/12/26 02:14:30;;;;;;;34.70;20.55;;;8.60;99.90;;;;;;5016250;28;20042;-35
2022/12/26 02:16:59;;;;;;;39.07;21.40;;;8.60;99.90;;;;;;5014762;28;20050;-35
2022/12/26 02:19:58;;;;;;;35.70;21.95;;;8.60;99.90;;;;;;5016377;28;20049;-33
2022/12/26 02:22:44;;;;;;;38.97;22.67;;;8.60;99.90;;;;;;5012469;28;20068;-33
2022/12/26 02:25:43;;;;;;;41.15;25.02;;;8.60;99.90;;;;;;5014605;28;20509;-32
2022/12/26 02:29:02;;;;;;;43.88;24.75;;;8.70;99.90;;;;;;5000865;28;20137;-33
2022/12/26 02:31:35;;;;;;;38.97;23.65;;;8.60;99.90;;;;;;4998200;28;20123;-34
2022/12/26 02:34:04;;;;;;;47.33;27.00;;;8.60;99.90;;;;;;4997334;28;20510;-34
2022/12/26 02:36:42;;;;;;;76.97;38.75;;;8.60;99.90;;;;;;5015991;28;20279;-34
2022/12/26 02:39:07;;;;;;;57.10;29.70;;;8.60;99.90;;;;;;4997925;28;20038;-34
2022/12/26 02:42:04;;;;;;;47.20;26.65;;;8.70;99.90;;;;;;5016320;28;20037;-34
2022/12/26 02:47:51;;;;;;;46.85;28.17;;;8.70;99.90;;;;;;5015611;28;20425;-34
2022/12/26 03:14:29;;;;;;;46.50;25.23;;;8.80;99.90;;;;;;5022234;28;20101;-34
2022/12/26 03:17:18;;;;;;;47.40;25.75;;;8.80;99.90;;;;;;4986718;28;20045;-35
2022/12/26 03:20:00;;;;;;;54.38;27.77;;;8.80;99.90;;;;;;5018243;28;20515;-34
2022/12/26 03:22:50;;;;;;;50.50;27.00;;;8.80;99.90;;;;;;5007830;28;20041;-35
2022/12/26 03:28:12;;;;;;;58.40;27.58;;;8.80;99.90;;;;;;5025449;28;20419;-36
2022/12/26 03:30:50;;;;;;;48.60;26.10;;;8.80;99.90;;;;;;5014736;28;20034;-35
2022/12/26 03:36:22;;;;;;;57.53;29.13;;;8.90;99.90;;;;;;5015171;28;20471;-34
2022/12/26 03:39:06;;;;;;;54.75;28.15;;;8.90;99.90;;;;;;4996930;28;20056;-35
2022/12/26 04:19:27;;;;;;;47.90;23.25;;;8.80;99.90;;;;;;5013755;28;20046;-34
2022/12/26 04:45:27;;;;;;;44.33;22.55;;;8.80;99.90;;;;;;5013450;28;20080;-34
2022/12/26 04:50:50;;;;;;;43.85;22.15;;;8.90;99.90;;;;;;5013805;28;20041;-34
2022/12/26 04:53:16;;;;;;;43.40;23.08;;;8.80;99.90;;;;;;4996539;28;20601;-35
2022/12/26 04:55:42;;;;;;;44.83;22.30;;;8.80;99.90;;;;;;5012590;28;20398;-34
2022/12/26 04:58:08;;;;;;;43.63;22.17;;;8.80;99.90;;;;;;5015401;28;20053;-35
2022/12/26 05:00:34;;;;;;;39.40;21.92;;;8.80;99.90;;;;;;5016589;28;20041;-34
2022/12/26 05:11:17;;;;;;;45.63;20.63;;;8.70;99.90;;;;;;5017431;28;20389;-34
2022/12/26 05:13:43;;;;;;;47.15;23.52;;;8.70;99.90;;;;;;4999669;28;20038;-34
2022/12/26 05:30:01;;;;;;;39.17;22.35;;;8.70;99.90;;;;;;5016438;28;20042;-34
2022/12/26 05:35:11;;;;;;;;;;;8.70;99.90;;;;;;5016826;28;20097;-34
2022/12/26 05:37:38;;;;;;;40.13;21.80;;;8.70;99.90;;;;;;5016059;28;19917;-34
2022/12/26 05:40:04;;;;;;;42.80;22.88;;;8.70;99.90;;;;;;4999510;28;20041;-34
2022/12/26 05:42:30;;;;;;;37.85;22.73;;;8.70;99.90;;;;;;5016964;28;20065;-34
2022/12/26 05:44:56;;;;;;;38.47;22.20;;;8.70;99.90;;;;;;5016780;28;20049;-34
2022/12/26 05:47:21;;;;;;;43.50;24.30;;;8.70;99.90;;;;;;4998420;28;20056;-34
2022/12/26 05:49:47;;;;;;;37.90;22.33;;;8.70;99.90;;;;;;5015515;28;20392;-34
2022/12/26 05:52:13;;;;;;;38.83;22.70;;;8.70;99.90;;;;;;4998406;28;20037;-34
2022/12/26 05:54:39;;;;;;;33.80;22.02;;;8.60;99.90;;;;;;4999342;28;20529;-34
2022/12/26 05:57:05;;;;;;;37.80;22.55;;;8.70;99.90;;;;;;5015242;28;20041;-34
2022/12/26 05:59:31;;;;;;;37.60;22.10;;;8.70;99.90;;;;;;5015931;28;20044;-34
2022/12/26 06:01:57;;;;;;;35.90;22.15;;;8.60;99.90;;;;;;5015803;28;20452;-34
2022/12/26 06:04:23;;;;;;;34.38;22.33;;;8.60;99.90;;;;;;5015125;28;20038;-34
2022/12/26 06:06:49;;;;;;;35.45;22.38;;;8.60;99.90;;;;;;5015210;28;20042;-34
2022/12/26 06:09:15;;;;;;;37.15;22.60;;;8.50;99.90;;;;;;4998344;28;20538;-34
2022/12/26 06:11:41;;;;;;;34.75;22.00;;;8.50;99.90;;;;;;5014475;28;20069;-34
2022/12/26 06:14:07;;;;;;;36.28;21.80;;;8.50;99.90;;;;;;5016100;28;20065;-34
2022/12/26 06:16:33;;;;;;;32.25;20.75;;;8.50;99.90;;;;;;5016229;28;20400;-34
2022/12/26 06:18:59;;;;;;;35.38;20.95;;;8.50;99.90;;;;;;5014776;28;20037;-34
2022/12/26 06:21:25;;;;;;;31.67;20.35;;;8.50;99.90;;;;;;5015577;28;20049;-34
2022/12/26 06:23:51;;;;;;;30.10;19.02;;;8.60;99.90;;;;;;5016660;28;20040;-34
2022/12/26 06:26:17;;;;;;;32.10;20.55;;;8.60;99.90;;;;;;4998339;28;20057;-34
2022/12/26 06:28:43;;;;;;;32.83;20.73;;;8.60;99.90;;;;;;5015094;28;20073;-34
2022/12/26 06:31:19;;;;;;;31.92;18.73;;;8.60;99.90;;;;;;5014475;28;20034;-34
2022/12/26 06:33:45;;;;;;;29.38;19.70;;;8.60;99.90;;;;;;5014903;28;20509;-34
2022/12/26 06:36:14;;;;;;;31.58;20.42;;;8.60;99.90;;;;;;4999064;28;20034;-35
2022/12/26 06:38:41;;;;;;;31.92;19.70;;;8.60;99.90;;;;;;4998791;28;20042;-34
2022/12/26 06:41:15;;;;;;;35.17;20.60;;;8.60;99.90;;;;;;4998682;28;20038;-34
2022/12/26 06:43:42;;;;;;;34.08;21.13;;;8.60;99.90;;;;;;4998123;28;20049;-34
2022/12/26 06:46:13;;;;;;;31.88;21.50;;;8.60;99.90;;;;;;4997938;28;20038;-34
2022/12/26 06:48:39;;;;;;;31.02;20.38;;;8.60;99.90;;;;;;4997867;28;20045;-34
2022/12/26 06:51:08;;;;;;;33.92;22.05;;;8.60;99.90;;;;;;5015882;28;20037;-36
2022/12/26 06:53:34;;;;;;;30.60;20.63;;;8.60;99.90;;;;;;4998149;28;20080;-34
2022/12/26 06:56:08;;;;;;;31.70;20.30;;;8.60;99.90;;;;;;5016031;28;20042;-34
2022/12/26 06:58:34;;;;;;;33.13;20.35;;;8.60;99.90;;;;;;4998009;28;20037;-34
2022/12/26 07:01:14;;;;;;;33.58;21.17;;;8.60;99.90;;;;;;5000238;28;20037;-36
2022/12/26 07:03:41;;;;;;;32.88;19.42;;;8.60;99.90;;;;;;5022438;28;20037;-36
2022/12/26 07:06:16;;;;;;;30.15;20.40;;;8.50;99.90;;;;;;5001055;28;20061;-36
2022/12/26 07:08:42;;;;;;;30.98;20.75;;;8.50;99.90;;;;;;5004104;28;20080;-36
2022/12/26 07:11:25;;;;;;;35.83;22.13;;;8.40;99.90;;;;;;5003945;28;20490;-37
2022/12/26 07:13:52;;;;;;;37.72;22.52;;;8.30;99.90;;;;;;5011292;28;20038;-37
2022/12/26 07:16:18;;;;;;;34.35;23.02;;;8.30;99.90;;;;;;5015576;28;20091;-36
2022/12/26 07:18:44;;;;;;;34.70;21.60;;;8.20;99.90;;;;;;4997339;28;20029;-35
2022/12/26 07:21:12;;;;;;;35.55;22.27;;;8.20;99.90;;;;;;5000529;28;20560;-35
2022/12/26 07:23:38;;;;;;;41.05;23.67;;;8.10;99.90;;;;;;5014645;28;20038;-35
2022/12/26 07:26:04;;;;;;;34.40;23.20;;;8.10;99.90;;;;;;5014319;28;20077;-35
2022/12/26 07:28:30;;;;;;;38.33;23.40;;;8.10;99.90;;;;;;4997191;28;20402;-35
2022/12/26 07:30:59;;;;;;;38.35;24.42;;;8.00;99.90;;;;;;5013460;28;20121;-35
2022/12/26 07:33:26;;;;;;;40.28;24.60;;;8.00;99.90;;;;;;5030107;28;20117;-35
2022/12/26 07:35:52;;;;;;;36.50;23.30;;;8.00;99.90;;;;;;4998172;28;20423;-35
2022/12/26 07:38:27;;;;;;;44.85;25.55;;;8.00;99.90;;;;;;4996652;28;20038;-35
2022/12/26 07:41:56;;;;;;;39.30;24.48;;;8.00;99.90;;;;;;5014360;28;20135;-38
2022/12/26 07:43:45;;;;;;;43.55;24.15;;;7.90;99.90;;;;;;5019509;28;20434;-38
2022/12/26 07:46:13;;;;;;;41.20;23.95;;;7.90;99.90;;;;;;4997997;28;20040;-37
2022/12/26 07:48:40;;;;;;;39.60;24.38;;;7.90;99.90;;;;;;5014428;28;20034;-38
2022/12/26 07:51:08;;;;;;;41.85;26.30;;;7.90;99.90;;;;;;5016837;28;20036;-38
2022/12/26 07:53:33;;;;;;;47.75;30.92;;;7.90;99.90;;;;;;4995859;28;20172;-39
2022/12/26 07:56:01;;;;;;;37.33;25.02;;;8.00;99.90;;;;;;5011921;28;20068;-40
2022/12/26 07:58:35;;;;;;;36.90;21.88;;;8.00;99.90;;;;;;4997248;28;20403;-38
2022/12/26 08:01:03;;;;;;;40.95;23.77;;;7.90;99.90;;;;;;4995722;28;20148;-38
2022/12/26 08:03:30;;;;;;;38.67;23.42;;;7.90;99.90;;;;;;4996102;28;20038;-38
2022/12/26 08:05:56;;;;;;;36.33;24.45;;;7.90;99.90;;;;;;4993777;28;20048;-37
2022/12/26 08:08:22;;;;;;;36.22;22.13;;;8.00;99.90;;;;;;5001652;28;20034;-37
2022/12/26 08:10:48;;;;;;;34.88;22.10;;;8.00;99.90;;;;;;5013327;28;20138;-37
2022/12/26 08:13:14;;;;;;;32.17;20.70;;;8.00;99.90;;;;;;5012120;28;20104;-37
2022/12/26 08:15:40;;;;;;;31.65;21.15;;;8.00;99.90;;;;;;4996164;28;20037;-37
2022/12/26 08:18:06;;;;;;;34.35;21.05;;;8.00;99.90;;;;;;4991911;28;20045;-37
2022/12/26 08:20:32;;;;;;;29.55;18.05;;;8.00;99.90;;;;;;4994546;28;20240;-37
2022/12/26 08:22:58;;;;;;;27.52;18.95;;;8.00;99.90;;;;;;5015141;28;20045;-37
2022/12/26 08:25:24;;;;;;;26.63;18.00;;;8.00;99.90;;;;;;5013374;28;20048;-37
2022/12/26 08:27:50;;;;;;;23.30;16.83;;;8.00;99.90;;;;;;4993516;28;20331;-37
2022/12/26 08:30:16;;;;;;;26.35;17.52;;;8.00;99.90;;;;;;4998754;28;20042;-37
2022/12/26 08:32:42;;;;;;;24.30;17.15;;;8.00;99.90;;;;;;4997777;28;20395;-37
2022/12/26 08:35:08;;;;;;;23.65;16.27;;;8.10;99.90;;;;;;4984333;28;20046;-37
2022/12/26 08:37:34;;;;;;;22.48;16.48;;;8.10;99.90;;;;;;5016698;28;20419;-37
2022/12/26 08:40:00;;;;;;;24.30;15.18;;;8.10;99.90;;;;;;5000938;28;20037;-37
2022/12/26 08:42:26;;;;;;;24.13;16.23;;;8.20;99.90;;;;;;4983781;28;20053;-36
2022/12/26 08:44:52;;;;;;;19.55;14.45;;;8.30;99.90;;;;;;4996606;28;20038;-37
2022/12/26 08:47:25;;;;;;;18.25;13.60;;;8.40;99.90;;;;;;4991595;28;20034;-37
2022/12/26 08:53:03;;;;;;;19.92;12.75;;;8.60;99.90;;;;;;5013848;28;20045;-37
2022/12/26 08:55:30;;;;;;;16.63;11.88;;;8.60;99.90;;;;;;4997826;28;20030;-36
2022/12/26 08:57:57;;;;;;;15.85;12.10;;;8.70;99.90;;;;;;5015625;28;20034;-37
2022/12/26 09:00:25;;;;;;;17.08;11.55;;;8.80;99.90;;;;;;5014941;28;20072;-37
2022/12/26 09:02:53;;;;;;;15.93;11.23;;;8.80;99.90;;;;;;4997836;28;20034;-36
2022/12/26 09:05:19;;;;;;;14.85;10.00;;;8.90;99.90;;;;;;5015880;28;20144;-36
2022/12/26 09:07:46;;;;;;;14.38;9.65;;;8.90;99.90;;;;;;5018071;28;20558;-37
2022/12/26 09:10:12;;;;;;;15.18;9.88;;;9.00;99.90;;;;;;4999353;28;20041;-37
2022/12/26 09:12:38;;;;;;;14.55;9.50;;;9.10;99.90;;;;;;5012068;28;20438;-36
2022/12/26 09:15:05;;;;;;;14.10;8.73;;;9.10;99.90;;;;;;5000473;28;20053;-36
2022/12/26 09:17:33;;;;;;;13.00;8.00;;;9.20;99.90;;;;;;4997932;28;20464;-36
2022/12/26 09:20:24;;;;;;;11.82;8.15;;;9.30;99.90;;;;;;4997042;28;20033;-37
2022/12/26 09:22:53;;;;;;;11.45;8.25;;;9.30;99.90;;;;;;5014417;28;20038;-36
2022/12/26 09:25:24;;;;;;;9.23;7.30;;;9.40;99.90;;;;;;4999936;28;20062;-37
2022/12/26 09:27:52;;;;;;;12.35;8.82;;;9.40;99.90;;;;;;4998098;28;20104;-37
2022/12/26 09:30:20;;;;;;;11.68;7.47;;;9.40;99.90;;;;;;5015731;28;20491;-37
2022/12/26 09:32:46;;;;;;;11.30;8.20;;;9.40;99.90;;;;;;4997666;28;20034;-37
2022/12/26 09:35:13;;;;;;;10.73;7.85;;;9.40;99.90;;;;;;5014208;28;20041;-37
2022/12/26 09:37:39;;;;;;;11.43;7.82;;;9.40;99.90;;;;;;4996825;28;20066;-37
2022/12/26 09:40:18;;;;;;;11.02;6.47;;;9.40;99.90;;;;;;4998474;28;20454;-37
2022/12/26 09:42:54;;;;;;;9.75;6.28;;;9.50;99.90;;;;;;4997267;28;20034;-35
2022/12/26 09:48:58;;;;;;;6.20;5.60;;;9.50;99.90;;;;;;5009332;28;20131;-36
2022/12/26 09:51:32;;;;;;;7.38;6.07;;;9.60;99.90;;;;;;4987408;28;20073;-35
2022/12/26 09:54:01;;;;;;;8.25;6.38;;;9.60;99.90;;;;;;4995433;28;20117;-35
2022/12/26 09:56:32;;;;;;;10.05;6.47;;;9.60;99.90;;;;;;4996008;28;20462;-35
2022/12/26 09:59:06;;;;;;;16.10;8.40;;;9.60;99.90;;;;;;4996034;28;20061;-35
2022/12/26 10:01:39;;;;;;;27.50;13.60;;;9.70;99.90;;;;;;4997014;28;20030;-35
2022/12/26 10:04:23;;;;;;;14.00;8.57;;;9.70;99.90;;;;;;4998541;28;20038;-35
2022/12/26 10:07:15;;;;;;;26.13;13.40;;;9.80;99.90;;;;;;4995081;28;20096;-35
2022/12/26 10:10:03;;;;;;;17.40;8.02;;;9.80;99.90;;;;;;4985572;28;20377;-35
2022/12/26 10:12:44;;;;;;;24.95;12.25;;;9.80;99.90;;;;;;4997339;28;20053;-35
2022/12/26 10:15:34;;;;;;;14.73;7.80;;;9.80;99.90;;;;;;4998467;28;20419;-36
2022/12/26 10:18:20;;;;;;;20.08;10.95;;;9.80;99.90;;;;;;4996094;28;20100;-36
2022/12/26 10:21:09;;;;;;;7.47;5.00;;;9.70;99.90;;;;;;5001906;28;20063;-38
2022/12/26 10:23:45;;;;;;;8.75;4.70;;;9.70;99.90;;;;;;5019820;28;20037;-36
2022/12/26 10:26:38;;;;;;;14.57;3.35;;;9.60;99.90;;;;;;5003962;28;20072;-37
2022/12/26 10:29:07;;;;;;;8.32;2.53;;;9.30;99.90;;;;;;5022606;28;20056;-37
2022/12/26 10:31:52;;;;;;;9.15;2.67;;;9.00;99.90;;;;;;4998567;28;20092;-36
2022/12/26 10:34:46;;;;;;;9.30;1.98;;;8.80;99.90;;;;;;5013398;28;20042;-37
2022/12/26 10:37:15;;;;;;;11.90;2.75;;;8.60;99.90;;;;;;4999294;28;20038;-36
2022/12/26 10:39:49;;;;;;;8.80;2.53;;;8.50;99.90;;;;;;4997839;28;20041;-36
2022/12/26 10:42:38;;;;;;;8.07;1.98;;;8.50;99.90;;;;;;4994275;28;20130;-37
2022/12/26 10:45:44;;;;;;;10.45;1.98;;;8.60;99.90;;;;;;5018625;28;20514;-37
2022/12/26 10:48:12;;;;;;;9.10;2.03;;;8.70;99.90;;;;;;5014094;28;20513;-37
2022/12/26 10:50:47;;;;;;;10.18;2.70;;;9.00;99.90;;;;;;4995938;28;20041;-37
2022/12/26 10:53:15;;;;;;;8.32;1.83;;;9.30;99.90;;;;;;4999080;28;20038;-35
2022/12/26 10:55:41;;;;;;;5.65;2.15;;;9.70;99.90;;;;;;4996603;28;20042;-36
2022/12/26 10:58:29;;;;;;;7.28;1.92;;;10.00;99.90;;;;;;4999248;28;20041;-35
2022/12/26 11:00:55;;;;;;;9.98;2.42;;;9.80;99.90;;;;;;5020851;28;20124;-36
2022/12/26 11:03:21;;;;;;;7.85;1.67;;;9.60;99.90;;;;;;4998760;28;20117;-35
2022/12/26 11:05:52;;;;;;;8.18;2.00;;;9.30;99.90;;;;;;5000359;28;20040;-36
2022/12/26 11:08:21;;;;;;;5.75;1.50;;;9.00;99.90;;;;;;4998974;28;20034;-36
2022/12/26 11:11:10;;;;;;;4.63;1.27;;;8.80;99.90;;;;;;5021273;28;20046;-35
2022/12/26 11:13:46;;;;;;;8.55;1.60;;;8.70;99.90;;;;;;5006520;28;20517;-35
2022/12/26 11:16:12;;;;;;;5.32;1.20;;;8.60;99.90;;;;;;5016724;28;20045;-35
2022/12/26 11:18:50;;;;;;;9.02;1.95;;;8.50;99.90;;;;;;4998101;28;20045;-35
2022/12/26 11:21:16;;;;;;;8.27;1.55;;;8.40;99.90;;;;;;4991878;28;20546;-35
2022/12/26 11:23:47;;;;;;;8.70;1.75;;;8.30;99.90;;;;;;4994301;28;20080;-35
2022/12/26 11:26:25;;;;;;;6.25;1.42;;;8.20;99.90;;;;;;4998061;28;20089;-36
2022/12/26 11:29:25;;;;;;;5.05;1.98;;;8.10;99.90;;;;;;5000413;28;20092;-36
2022/12/26 11:32:00;;;;;;;5.63;1.67;;;8.10;99.90;;;;;;4962887;28;20103;-36
2022/12/26 11:34:46;;;;;;;7.82;1.55;;;8.00;99.90;;;;;;4997642;28;20053;-36
2022/12/26 11:37:29;;;;;;;7.20;2.15;;;8.00;99.90;;;;;;5015657;28;20034;-36
2022/12/26 11:39:56;;;;;;;6.13;1.05;;;8.00;99.90;;;;;;4997235;28;20172;-36
2022/12/26 11:42:24;;;;;;;7.72;1.65;;;8.00;99.90;;;;;;5001179;28;20029;-36
2022/12/26 11:44:53;;;;;;;9.40;1.75;;;7.90;99.90;;;;;;5002000;28;20042;-36
2022/12/26 11:47:26;;;;;;;5.15;1.40;;;7.90;99.90;;;;;;4998441;28;20045;-36
2022/12/26 11:50:16;;;;;;;5.80;1.33;;;7.80;99.90;;;;;;4995122;28;20451;-36
2022/12/26 11:52:42;;;;;;;7.20;1.85;;;7.80;99.90;;;;;;4996847;28;20033;-36
2022/12/26 11:55:23;;;;;;;4.82;1.25;;;7.80;99.90;;;;;;4995947;28;20038;-36
2022/12/26 11:58:07;;;;;;;7.53;1.42;;;7.80;99.90;;;;;;5021045;28;20041;-34
2022/12/26 12:01:00;;;;;;;9.05;1.60;;;7.80;99.90;;;;;;4991921;28;20120;-34
2022/12/26 12:03:47;;;;;;;8.75;1.65;;;7.80;99.90;;;;;;4994103;28;20124;-34
2022/12/26 12:06:31;;;;;;;6.75;1.90;;;7.80;99.90;;;;;;4995802;28;20078;-34
2022/12/26 12:08:56;;;;;;;7.63;1.85;;;7.90;99.90;;;;;;5010062;28;20050;-34
2022/12/26 12:11:31;;;;;;;8.80;2.65;;;7.90;99.90;;;;;;4996313;28;20494;-34
2022/12/26 12:13:57;;;;;;;9.13;2.03;;;7.90;99.90;;;;;;5013026;28;20061;-34
2022/12/26 12:16:44;;;;;;;8.30;1.90;;;7.90;99.90;;;;;;5005013;28;20042;-34
2022/12/26 12:19:22;;;;;;;7.30;2.08;;;7.90;99.90;;;;;;5019622;28;20491;-34
2022/12/26 12:22:09;;;;;;;7.57;1.85;;;7.90;99.90;;;;;;4997621;28;20073;-34
2022/12/26 12:25:20;;;;;;;8.77;2.28;;;7.90;99.90;;;;;;4999539;28;20073;-34
2022/12/26 12:28:02;;;;;;;7.50;1.80;;;7.80;99.90;;;;;;4993281;28;20471;-34
2022/12/26 12:30:55;;;;;;;11.18;2.03;;;7.80;99.90;;;;;;5010315;28;20437;-34
2022/12/26 12:33:59;;;;;;;10.25;1.73;;;7.70;99.90;;;;;;5000972;28;20492;-35
2022/12/26 12:36:50;;;;;;;10.23;2.00;;;7.60;99.90;;;;;;5002637;28;20741;-34
2022/12/26 12:39:33;;;;;;;12.25;2.42;;;7.50;99.90;;;;;;4999619;28;20084;-34
2022/12/26 12:42:17;;;;;;;8.10;2.22;;;7.40;99.90;;;;;;4996971;28;20034;-34
2022/12/26 12:45:14;;;;;;;9.25;1.95;;;7.40;99.90;;;;;;4994171;28;20037;-34
2022/12/26 12:47:58;;;;;;;12.45;1.95;;;7.50;99.90;;;;;;4994771;28;20046;-34
2022/12/26 12:50:44;;;;;;;11.15;2.10;;;7.60;99.90;;;;;;4999276;28;20616;-34
2022/12/26 12:53:48;;;;;;;13.30;2.22;;;8.00;99.90;;;;;;4983157;28;20100;-34
2022/12/26 12:56:26;;;;;;;7.93;1.80;;;8.40;99.90;;;;;;4998279;28;20095;-35
2022/12/26 12:59:24;;;;;;;11.65;2.42;;;8.50;99.90;;;;;;5011195;28;20041;-34
2022/12/26 13:01:54;;;;;;;8.80;1.90;;;8.40;99.90;;;;;;4989433;28;20034;-34
2022/12/26 13:04:20;;;;;;;11.30;2.60;;;8.20;99.90;;;;;;4992736;28;20044;-34
2022/12/26 13:06:55;;;;;;;13.38;2.38;;;8.00;99.90;;;;;;5001264;28;20120;-34
2022/12/26 13:09:33;;;;;;;10.75;2.67;;;7.90;99.90;;;;;;5009511;28;20030;-34
2022/12/26 13:12:17;;;;;;;7.55;1.67;;;7.80;99.90;;;;;;5002337;28;20045;-34
2022/12/26 13:15:07;;;;;;;9.77;3.35;;;7.70;99.90;;;;;;4993134;28;20034;-34
2022/12/26 13:17:47;;;;;;;8.38;2.15;;;7.60;99.90;;;;;;5005937;28;20042;-34
2022/12/26 13:20:26;;;;;;;10.40;2.17;;;7.50;99.90;;;;;;4997099;28;20038;-35
2022/12/26 13:26:03;;;;;;;13.52;3.58;;;7.60;99.90;;;;;;5007934;28;20515;-34
2022/12/26 13:28:35;;;;;;;12.82;2.05;;;7.60;99.90;;;;;;5021293;28;20064;-35
2022/12/26 13:31:00;;;;;;;8.77;2.30;;;7.60;99.90;;;;;;5013252;28;20040;-34
2022/12/26 13:33:27;;;;;;;16.92;2.55;;;7.50;99.90;;;;;;5003743;28;20395;-35
2022/12/26 13:35:56;;;;;;;11.13;2.28;;;7.50;99.90;;;;;;5000792;28;20034;-34
2022/12/26 13:38:23;;;;;;;14.20;2.33;;;7.80;99.90;;;;;;4996125;28;20052;-35
2022/12/26 13:44:06;;;;;;;13.63;2.63;;;8.20;99.90;;;;;;5017011;28;20034;-36
2022/12/26 13:46:41;;;;;;;12.23;2.30;;;8.40;99.90;;;;;;5011121;28;20062;-35
2022/12/26 13:49:25;;;;;;;8.57;2.17;;;8.40;99.90;;;;;;4996656;28;20076;-35
2022/12/26 13:51:53;;;;;;;7.35;2.03;;;8.20;99.90;;;;;;5003694;28;20120;-35
2022/12/26 13:54:21;;;;;;;12.95;2.65;;;8.10;99.90;;;;;;5012458;28;20035;-35
2022/12/26 13:57:06;;;;;;;7.53;1.92;;;7.90;99.90;;;;;;4996491;28;20061;-35
2022/12/26 13:59:55;;;;;;;10.95;2.30;;;7.70;99.90;;;;;;4996392;28;20095;-36
2022/12/26 14:02:23;;;;;;;9.50;1.92;;;7.50;99.90;;;;;;4996690;28;20091;-36
2022/12/26 14:05:25;;;;;;;9.55;2.78;;;7.50;99.90;;;;;;5021864;28;20073;-36
2022/12/26 14:08:08;;;;;;;11.82;2.67;;;7.40;99.90;;;;;;4991723;28;20050;-36
2022/12/26 14:11:06;;;;;;;7.28;2.05;;;7.40;99.90;;;;;;4998482;28;20053;-35
2022/12/26 14:13:56;;;;;;;8.82;2.20;;;7.30;99.90;;;;;;4998003;28;20117;-34
2022/12/26 14:16:47;;;;;;;8.75;2.08;;;7.30;99.90;;;;;;4980246;28;20048;-34
2022/12/26 14:19:36;;;;;;;11.88;2.60;;;7.20;99.90;;;;;;4996925;28;20096;-34
2022/12/26 14:22:29;;;;;;;10.20;2.63;;;7.10;99.90;;;;;;4988464;28;20096;-34
2022/12/26 14:25:26;;;;;;;11.02;3.28;;;7.10;99.90;;;;;;4996564;28;20124;-34
2022/12/26 14:28:42;;;;;;;14.18;3.22;;;7.00;99.90;;;;;;4996782;28;20414;-35
2022/12/26 14:31:33;;;;;;;13.27;2.67;;;6.90;99.90;;;;;;5012487;28;20054;-34
2022/12/26 14:34:05;;;;;;;9.80;2.55;;;6.80;99.90;;;;;;5013054;28;20042;-34
2022/12/26 14:36:48;;;;;;;11.00;2.58;;;6.70;99.90;;;;;;4996736;28;20040;-34
2022/12/26 14:39:51;;;;;;;10.90;2.15;;;6.70;99.90;;;;;;4996619;28;20495;-34
2022/12/26 14:45:31;;;;;;;9.75;2.00;;;6.50;99.90;;;;;;5013721;28;20108;-34
2022/12/26 14:47:57;;;;;;;8.55;1.90;;;6.40;99.90;;;;;;5013566;28;20045;-34
2022/12/26 14:51:06;;;;;;;11.75;2.30;;;6.40;99.90;;;;;;5013540;28;20141;-34
2022/12/26 14:53:33;;;;;;;13.27;2.30;;;6.30;99.90;;;;;;4985713;28;20057;-34
2022/12/26 14:56:19;;;;;;;8.02;2.13;;;6.20;99.90;;;;;;4996374;28;20125;-34
2022/12/26 14:58:49;;;;;;;10.80;1.90;;;6.10;99.90;;;;;;5012432;28;20419;-34
2022/12/26 15:01:16;;;;;;;10.45;2.25;;;6.00;99.90;;;;;;4995934;28;20045;-34
2022/12/26 15:04:03;;;;;;;10.05;2.15;;;6.00;99.90;;;;;;4996132;28;20046;-34
2022/12/26 15:06:51;;;;;;;11.45;1.92;;;5.90;99.90;;;;;;4995731;28;20125;-34
2022/12/26 15:09:47;;;;;;;11.65;2.30;;;5.90;99.90;;;;;;5013147;28;20129;-34
2022/12/26 15:12:37;;;;;;;9.90;2.75;;;5.80;99.90;;;;;;4979340;28;20045;-34
2022/12/26 15:15:28;;;;;;;8.40;2.25;;;5.70;99.90;;;;;;4995563;28;20042;-34
2022/12/26 15:18:06;;;;;;;8.18;1.77;;;5.70;99.90;;;;;;5012310;28;20038;-35
2022/12/26 15:21:34;;;;;;;10.45;2.25;;;5.70;99.90;;;;;;4995897;28;20041;-32
2022/12/26 15:24:19;;;;;;;12.57;2.05;;;5.70;99.90;;;;;;4955633;28;20121;-33
2022/12/26 15:26:53;;;;;;;8.65;1.70;;;5.60;99.90;;;;;;4955739;28;20038;-33
2022/12/26 15:29:28;;;;;;;7.72;1.85;;;5.60;99.90;;;;;;4981414;28;20065;-33
2022/12/26 15:32:17;;;;;;;9.93;2.28;;;5.50;99.90;;;;;;4978905;28;20045;-33
2022/12/26 15:34:57;;;;;;;8.75;2.63;;;5.50;99.90;;;;;;4977097;28;20089;-34
2022/12/26 15:37:27;;;;;;;12.23;2.45;;;5.50;99.90;;;;;;4995308;28;20057;-33
2022/12/26 15:39:59;;;;;;;15.02;2.45;;;5.50;99.90;;;;;;4995284;28;20046;-34
2022/12/26 15:43:02;;;;;;;14.38;2.08;;;5.50;99.90;;;;;;4994864;28;20049;-34
2022/12/26 15:45:33;;;;;;;8.25;2.00;;;5.40;99.90;;;;;;4995030;28;20099;-33